Time;durP1;ratioP1;P1;durP2;ratioP2;P2;SDS_P1;SDS_P2;PMS_P1;PMS_P2;Temp;Humidity;BMP_temperature;BMP_pressure;BME280_temperature;BME280_humidity;BME280_pressure;Samples;Min_cycle;Max_cycle;Signal;HPM_P1;HPM_P2
2023/04/05 00:01:31;;;;;;;13.10;7.77;;;;;;;2.68;70.18;102254.31;5284197;28;20047;-71
2023/04/05 00:04:04;;;;;;;14.38;7.15;;;;;;;2.65;70.69;102258.47;5284115;28;20028;-71
2023/04/05 00:06:36;;;;;;;11.68;7.85;;;;;;;2.71;70.70;102261.31;5284098;28;20035;-71
2023/04/05 00:09:08;;;;;;;12.85;7.15;;;;;;;2.60;71.04;102259.97;5283886;28;20039;-71
2023/04/05 00:11:39;;;;;;;11.07;7.57;;;;;;;2.63;71.01;102262.69;5283918;28;20036;-70
2023/04/05 00:14:10;;;;;;;10.70;7.40;;;;;;;2.54;71.19;102269.19;5282764;28;20036;-70
2023/04/05 00:16:42;;;;;;;15.10;7.40;;;;;;;2.60;71.58;102270.25;5283791;28;20031;-70
2023/04/05 00:19:14;;;;;;;12.67;7.87;;;;;;;2.48;71.20;102265.44;5283665;28;20028;-70
2023/04/05 00:21:45;;;;;;;12.57;7.40;;;;;;;2.45;72.20;102258.47;5282933;28;20056;-70
2023/04/05 00:24:17;;;;;;;12.70;8.33;;;;;;;2.44;72.42;102259.28;5283807;28;20044;-70
2023/04/05 00:26:48;;;;;;;12.63;8.37;;;;;;;2.39;72.59;102259.91;5283790;28;20025;-70
2023/04/05 00:29:19;;;;;;;11.60;8.27;;;;;;;2.34;72.96;102257.13;5283372;28;20033;-71
2023/04/05 00:31:51;;;;;;;18.03;7.73;;;;;;;2.33;72.77;102256.22;5283655;28;20538;-71
2023/04/05 00:34:22;;;;;;;13.40;7.47;;;;;;;2.31;73.47;102263.00;5283545;28;20032;-70
2023/04/05 00:36:53;;;;;;;11.67;7.63;;;;;;;2.26;73.91;102253.31;5283441;28;20186;-71
2023/04/05 00:39:25;;;;;;;16.63;8.43;;;;;;;2.14;73.94;102244.25;5283556;28;20554;-71
2023/04/05 00:41:56;;;;;;;12.10;7.90;;;;;;;2.10;73.56;102244.91;5283520;28;20107;-71
2023/04/05 00:44:28;;;;;;;13.33;8.40;;;;;;;2.11;74.34;102248.34;5283593;28;20040;-72
2023/04/05 00:47:08;;;;;;;11.63;7.40;;;;;;;2.04;75.21;102242.03;5283460;28;20036;-72
2023/04/05 00:49:39;;;;;;;11.23;7.78;;;;;;;2.05;75.05;102241.25;5283472;28;20095;-72
2023/04/05 00:52:11;;;;;;;13.07;8.80;;;;;;;1.94;75.51;102237.31;5282786;28;20036;-71
2023/04/05 00:54:43;;;;;;;14.98;7.85;;;;;;;1.63;75.44;102234.19;5282041;28;20032;-72
2023/04/05 00:57:15;;;;;;;17.07;9.03;;;;;;;1.52;76.54;102237.06;5283423;28;20475;-71
2023/04/05 00:59:46;;;;;;;12.02;7.88;;;;;;;1.58;77.39;102238.22;5283317;28;20036;-72
2023/04/05 01:02:32;;;;;;;14.30;8.47;;;;;;;1.44;77.05;102244.41;5283390;28;20086;-70
2023/04/05 01:05:20;;;;;;;17.30;8.80;;;;;;;1.40;78.04;102251.09;5283262;28;20039;-70
2023/04/05 01:08:03;;;;;;;17.55;8.77;;;;;;;1.40;78.20;102250.19;5282870;28;20051;-70
2023/04/05 01:10:41;;;;;;;12.23;8.60;;;;;;;1.28;78.16;102243.66;5283308;28;20535;-71
2023/04/05 01:13:15;;;;;;;14.30;8.52;;;;;;;1.25;78.29;102245.19;5283133;28;20024;-71
2023/04/05 01:15:47;;;;;;;15.30;8.98;;;;;;;1.19;78.75;102248.34;5282530;28;20040;-71
2023/04/05 01:18:20;;;;;;;16.67;8.67;;;;;;;1.16;78.14;102239.59;5283219;28;20029;-71
2023/04/05 01:21:09;;;;;;;12.43;8.50;;;;;;;1.14;79.54;102247.22;5282949;28;20140;-70
2023/04/05 01:23:57;;;;;;;15.25;8.65;;;;;;;1.06;80.20;102235.69;5282631;28;20028;-70
2023/04/05 01:26:37;;;;;;;19.08;8.55;;;;;;;1.07;80.15;102230.63;5283222;28;20384;-70
2023/04/05 01:29:38;;;;;;;14.07;8.82;;;;;;;1.05;80.13;102233.94;5283018;28;20029;-70
2023/04/05 01:32:24;;;;;;;11.65;8.23;;;;;;;1.02;80.26;102234.66;5283025;28;20033;-70
2023/04/05 01:35:16;;;;;;;15.00;8.65;;;;;;;1.01;81.17;102232.91;5282981;28;20033;-70
2023/04/05 01:37:54;;;;;;;17.35;8.65;;;;;;;0.97;81.09;102225.00;5283016;28;20032;-72
2023/04/05 01:40:26;;;;;;;16.70;8.65;;;;;;;0.91;81.17;102229.00;5282917;28;20021;-70
2023/04/05 01:43:01;;;;;;;12.77;8.75;;;;;;;0.85;81.93;102220.09;5282954;28;20062;-71
2023/04/05 01:45:32;;;;;;;14.77;8.65;;;;;;;0.82;82.23;102225.09;5282801;28;20119;-71
2023/04/05 01:48:04;;;;;;;12.77;8.03;;;;;;;0.80;82.01;102216.44;5283901;28;20120;-71
2023/04/05 01:50:35;;;;;;;14.53;8.07;;;;;;;0.80;82.16;102213.88;5286782;28;20484;-71
2023/04/05 01:53:07;;;;;;;14.30;8.43;;;;;;;0.78;82.47;102220.63;5286520;28;20031;-71
2023/04/05 01:55:38;;;;;;;12.70;8.73;;;;;;;0.70;82.31;102208.25;5286398;28;20029;-71
2023/04/05 01:58:10;;;;;;;15.30;8.60;;;;;;;0.66;83.04;102216.63;5286843;28;20111;-70
2023/04/05 02:00:41;;;;;;;13.37;9.33;;;;;;;0.61;83.25;102210.38;5286702;28;20032;-69
2023/04/05 02:03:12;;;;;;;15.07;9.17;;;;;;;0.59;82.97;102214.53;5286600;28;20059;-69
2023/04/05 02:05:44;;;;;;;12.33;8.10;;;;;;;0.51;83.03;102205.56;5286465;28;20040;-70
2023/04/05 02:08:15;;;;;;;15.23;9.70;;;;;;;0.50;83.54;102201.22;5286536;28;20107;-69
2023/04/05 02:10:46;;;;;;;11.67;8.43;;;;;;;0.47;83.86;102203.66;5286095;28;20033;-70
2023/04/05 02:13:20;;;;;;;14.63;8.63;;;;;;;0.43;83.86;102204.31;5286143;28;20035;-70
2023/04/05 02:15:52;;;;;;;14.60;8.80;;;;;;;0.35;84.21;102202.22;5286233;28;20032;-70
2023/04/05 02:18:28;;;;;;;14.53;8.90;;;;;;;0.33;84.20;102206.38;5286339;28;20375;-70
2023/04/05 02:21:02;;;;;;;16.23;9.25;;;;;;;0.33;84.76;102203.81;5285789;28;20093;-70
2023/04/05 02:23:34;;;;;;;15.45;9.35;;;;;;;0.29;84.69;102207.03;5285795;28;20024;-70
2023/04/05 02:26:05;;;;;;;18.07;9.47;;;;;;;0.25;84.89;102199.09;5286247;28;20043;-70
2023/04/05 02:28:37;;;;;;;15.43;9.57;;;;;;;0.12;84.83;102203.56;5285834;28;20083;-70
2023/04/05 02:31:12;;;;;;;14.33;9.10;;;;;;;0.09;85.16;102203.41;5286172;28;20472;-70
2023/04/05 02:33:43;;;;;;;14.27;8.85;;;;;;;0.09;85.57;102199.97;5286020;28;20055;-70
2023/04/05 02:36:15;;;;;;;13.47;8.83;;;;;;;0.08;85.65;102204.22;5318591;28;20033;-70
2023/04/05 02:38:46;;;;;;;13.77;9.37;;;;;;;-0.01;85.45;102198.63;5286185;28;20036;-69
2023/04/05 02:41:18;;;;;;;11.73;8.93;;;;;;;-0.03;85.72;102197.66;5285321;28;20102;-70
2023/04/05 02:43:50;;;;;;;12.82;8.82;;;;;;;-0.07;86.18;102203.41;5284142;28;20383;-69
2023/04/05 02:46:21;;;;;;;15.43;9.70;;;;;;;-0.09;86.32;102194.75;5285425;28;20029;-69
2023/04/05 02:48:52;;;;;;;16.00;8.80;;;;;;;-0.14;86.63;102185.94;5285751;28;20031;-69
2023/04/05 02:51:25;;;;;;;14.43;9.47;;;;;;;-0.11;86.57;102193.78;5285712;28;20036;-76
2023/04/05 02:53:56;;;;;;;14.35;9.38;;;;;;;-0.08;87.46;102194.84;5285595;28;20025;-70
2023/04/05 02:56:28;;;;;;;14.47;9.33;;;;;;;-0.16;87.66;102191.00;5285100;28;20121;-70
2023/04/05 02:59:00;;;;;;;16.90;9.15;;;;;;;-0.21;87.72;102185.63;5285240;28;20036;-70
2023/04/05 03:01:31;;;;;;;16.30;9.07;;;;;;;-0.17;87.39;102191.78;5285133;28;20049;-69
2023/04/05 03:04:03;;;;;;;15.60;9.17;;;;;;;-0.23;87.43;102191.44;5284708;28;20444;-69
2023/04/05 03:06:34;;;;;;;21.33;11.33;;;;;;;-0.19;87.96;102190.81;5285429;28;20037;-69
2023/04/05 03:09:06;;;;;;;15.53;9.57;;;;;;;-0.28;86.94;102185.19;5285256;28;20025;-69
2023/04/05 03:11:37;;;;;;;14.18;9.35;;;;;;;-0.25;87.31;102187.94;5285306;28;20442;-69
2023/04/05 03:14:10;;;;;;;13.03;8.67;;;;;;;-0.28;87.86;102186.06;5285269;28;20089;-69
2023/04/05 03:16:42;;;;;;;13.23;8.60;;;;;;;-0.33;88.04;102173.81;5284027;28;20031;-70
2023/04/05 03:19:15;;;;;;;15.47;9.80;;;;;;;-0.32;88.55;102170.44;5284904;28;20477;-69
2023/04/05 03:21:48;;;;;;;17.13;9.15;;;;;;;-0.38;88.85;102174.44;5284887;28;20060;-70
2023/04/05 03:24:19;;;;;;;14.05;9.13;;;;;;;-0.36;89.03;102166.84;5284627;28;20055;-70
2023/04/05 03:26:50;;;;;;;16.93;8.83;;;;;;;-0.45;89.17;102168.91;5284857;28;20149;-70
2023/04/05 03:29:22;;;;;;;12.60;9.03;;;;;;;-0.46;89.23;102160.34;5284974;28;20029;-69
2023/04/05 03:31:53;;;;;;;14.50;8.90;;;;;;;-0.46;88.54;102165.47;5284921;28;20028;-70
2023/04/05 03:34:27;;;;;;;14.73;9.00;;;;;;;-0.43;88.44;102162.19;5284652;28;20025;-70
2023/04/05 03:36:59;;;;;;;22.17;9.68;;;;;;;-0.50;88.67;102171.25;5284824;28;20039;-69
2023/04/05 03:39:30;;;;;;;16.73;9.83;;;;;;;-0.60;88.94;102164.69;5284661;28;20111;-69
2023/04/05 03:42:02;;;;;;;15.93;9.33;;;;;;;-0.54;88.16;102160.72;5284676;28;20033;-70
2023/04/05 03:44:33;;;;;;;14.23;9.50;;;;;;;-0.53;88.22;102160.81;5284296;28;20146;-70
2023/04/05 03:47:04;;;;;;;13.73;9.33;;;;;;;-0.59;89.38;102157.91;5284454;28;20040;-70
2023/04/05 03:49:36;;;;;;;13.83;9.43;;;;;;;-0.61;89.47;102162.94;5284539;28;20036;-70
2023/04/05 03:52:08;;;;;;;17.33;10.40;;;;;;;-0.65;89.35;102163.56;5284172;28;20111;-69
2023/04/05 03:54:39;;;;;;;16.17;9.57;;;;;;;-0.70;89.50;102157.31;5284260;28;20037;-70
2023/04/05 03:57:11;;;;;;;13.60;9.57;;;;;;;-0.78;89.25;102159.44;5284509;28;20465;-70
2023/04/05 03:59:42;;;;;;;15.40;9.90;;;;;;;-0.74;89.15;102156.28;5284309;28;20064;-70
2023/04/05 04:02:13;;;;;;;17.33;9.37;;;;;;;-0.86;89.35;102150.47;5284267;28;20035;-70
2023/04/05 04:04:46;;;;;;;15.47;9.17;;;;;;;-0.82;89.38;102143.81;5283893;28;20085;-70
2023/04/05 04:07:17;;;;;;;15.27;8.00;;;;;;;-0.93;88.06;102139.00;5283908;28;20040;-69
2023/04/05 04:09:48;;;;;;;15.80;9.40;;;;;;;-0.86;88.59;102141.91;5283327;28;20029;-69
2023/04/05 04:12:20;;;;;;;18.17;9.87;;;;;;;-0.89;89.57;102144.28;5284107;28;20093;-69
2023/04/05 04:14:51;;;;;;;16.80;10.07;;;;;;;-0.93;89.93;102149.25;5283987;28;20119;-69
2023/04/05 04:17:31;;;;;;;19.60;9.07;;;;;;;-0.90;89.89;102138.31;5283934;28;20025;-69
2023/04/05 04:20:13;;;;;;;12.77;9.15;;;;;;;-0.95;89.48;102139.69;5282676;28;20124;-68
2023/04/05 04:22:47;;;;;;;14.25;8.90;;;;;;;-1.00;89.71;102139.47;5283225;28;20119;-68
2023/04/05 04:25:19;;;;;;;12.43;8.63;;;;;;;-0.97;89.86;102146.41;5283403;28;20115;-68
2023/04/05 04:27:51;;;;;;;19.57;9.30;;;;;;;-1.00;89.98;102136.91;5283714;28;20453;-68
2023/04/05 04:30:23;;;;;;;15.20;9.13;;;;;;;-1.03;90.10;102146.06;5283630;28;20036;-68
2023/04/05 04:32:56;;;;;;;18.20;13.05;;;;;;;-1.07;89.92;102133.91;5283469;28;20376;-68
2023/04/05 04:35:28;;;;;;;;;;;;;;;-1.06;89.00;102144.25;5284046;28;20041;-68
2023/04/05 04:38:01;;;;;;;19.58;13.80;;;;;;;-1.10;88.67;102139.72;5283641;28;19920;-68
2023/04/05 04:40:37;;;;;;;16.20;11.52;;;;;;;-1.16;88.82;102134.25;5283320;28;20025;-68
2023/04/05 04:43:18;;;;;;;18.75;12.43;;;;;;;-1.16;89.04;102131.69;5282390;28;20123;-68
2023/04/05 04:45:53;;;;;;;18.85;11.07;;;;;;;-1.15;89.21;102141.16;5283452;28;20039;-69
2023/04/05 04:48:24;;;;;;;23.77;14.98;;;;;;;-1.19;89.61;102136.63;5283585;28;20109;-68
2023/04/05 04:50:56;;;;;;;25.27;15.43;;;;;;;-1.19;90.14;102141.75;5283340;28;20024;-68
2023/04/05 04:53:27;;;;;;;18.80;12.27;;;;;;;-1.20;90.48;102143.44;5283040;28;20115;-69
2023/04/05 04:55:59;;;;;;;17.07;10.70;;;;;;;-1.27;90.15;102146.47;5282977;28;20036;-68
2023/04/05 04:58:30;;;;;;;16.43;10.27;;;;;;;-1.31;90.61;102141.94;5283382;28;20047;-68
2023/04/05 05:01:07;;;;;;;19.13;10.27;;;;;;;-1.33;90.98;102144.41;5283322;28;20085;-68
2023/04/05 05:03:39;;;;;;;15.60;10.07;;;;;;;-1.32;91.12;102138.53;5283160;28;20082;-69
2023/04/05 05:06:10;;;;;;;17.80;12.30;;;;;;;-1.33;90.91;102140.97;5283334;28;20032;-68
2023/04/05 05:08:42;;;;;;;18.17;11.20;;;;;;;-1.35;91.02;102140.03;5283023;28;20036;-68
2023/04/05 05:11:13;;;;;;;20.67;11.33;;;;;;;-1.32;91.26;102137.63;5283069;28;20039;-68
2023/04/05 05:13:45;;;;;;;18.57;11.43;;;;;;;-1.32;92.03;102140.16;5282902;28;20063;-68
2023/04/05 05:16:17;;;;;;;15.93;11.00;;;;;;;-1.28;92.63;102144.69;5282977;28;20032;-69
2023/04/05 05:18:50;;;;;;;;;;;;;;;-1.30;91.67;102151.41;5283002;28;20036;-70
2023/04/05 05:21:21;;;;;;;17.02;10.23;;;;;;;-1.35;91.90;102138.34;5282882;28;19999;-70
2023/04/05 05:23:52;;;;;;;28.53;12.90;;;;;;;-1.28;92.44;102142.13;5286306;28;20119;-70
2023/04/05 05:26:24;;;;;;;17.10;10.53;;;;;;;-1.28;92.74;102134.44;5287049;28;20117;-70
2023/04/05 05:29:00;;;;;;;16.80;10.63;;;;;;;-1.25;93.45;102142.31;5285505;28;20028;-70
2023/04/05 05:31:32;;;;;;;20.45;11.23;;;;;;;-1.26;93.44;102134.53;5286935;28;20039;-70
2023/04/05 05:34:03;;;;;;;21.03;11.33;;;;;;;-1.25;93.57;102133.75;5287054;28;20032;-70
2023/04/05 05:36:36;;;;;;;17.23;10.97;;;;;;;-1.21;93.20;102134.00;5286413;28;20468;-70
2023/04/05 05:39:07;;;;;;;17.30;12.07;;;;;;;-1.19;93.67;102127.31;5286758;28;20037;-70
2023/04/05 05:41:39;;;;;;;15.83;10.53;;;;;;;-1.15;93.59;102133.47;5286609;28;20043;-70
2023/04/05 05:44:10;;;;;;;18.23;10.43;;;;;;;-1.11;93.68;102133.75;5286817;28;20025;-69
2023/04/05 05:46:42;;;;;;;18.77;12.93;;;;;;;-1.09;93.46;102131.25;5286633;28;20039;-71
2023/04/05 05:49:13;;;;;;;17.43;10.57;;;;;;;-1.06;93.73;102130.53;5286415;28;20094;-70
2023/04/05 05:51:45;;;;;;;17.50;11.17;;;;;;;-0.98;94.02;102131.88;5286105;28;20040;-69
2023/04/05 05:54:16;;;;;;;18.10;11.40;;;;;;;-1.00;93.79;102139.47;5286481;28;20475;-69
2023/04/05 05:56:48;;;;;;;17.27;11.83;;;;;;;-0.93;93.54;102138.13;5286316;28;20043;-69
2023/04/05 05:59:19;;;;;;;19.07;11.17;;;;;;;-0.89;94.31;102134.94;5286385;28;20052;-69
2023/04/05 06:01:51;;;;;;;23.37;12.47;;;;;;;-0.76;94.51;102146.72;5286227;28;20029;-69
2023/04/05 06:04:23;;;;;;;19.80;11.87;;;;;;;-0.76;94.43;102146.72;5286089;28;20036;-69
2023/04/05 06:06:56;;;;;;;19.00;11.97;;;;;;;-0.67;94.16;102149.81;5286132;28;20133;-69
2023/04/05 06:09:27;;;;;;;32.30;15.25;;;;;;;-0.60;94.35;102148.47;5286147;28;20124;-69
2023/04/05 06:11:59;;;;;;;21.03;12.30;;;;;;;-0.50;94.64;102144.72;5286019;28;20119;-69
2023/04/05 06:14:31;;;;;;;17.35;12.25;;;;;;;-0.46;94.14;102138.97;5284545;28;20048;-69
2023/04/05 06:17:02;;;;;;;19.10;12.17;;;;;;;-0.35;93.83;102145.56;5286520;28;20119;-68
2023/04/05 06:19:33;;;;;;;22.57;11.97;;;;;;;-0.30;93.91;102150.94;5285809;28;20029;-69
2023/04/05 06:22:05;;;;;;;19.90;12.20;;;;;;;-0.23;93.19;102153.88;5285666;28;20123;-70
2023/04/05 06:24:36;;;;;;;20.97;11.27;;;;;;;-0.13;92.89;102155.28;5285499;28;20032;-70
2023/04/05 06:27:08;;;;;;;19.30;12.07;;;;;;;-0.05;92.38;102151.44;5285883;28;20379;-69
2023/04/05 06:29:40;;;;;;;26.63;12.23;;;;;;;0.07;91.42;102152.88;5285893;28;20021;-69
2023/04/05 06:32:11;;;;;;;20.27;11.20;;;;;;;0.17;89.41;102152.53;5285836;28;20082;-70
2023/04/05 06:34:45;;;;;;;19.13;11.00;;;;;;;0.34;88.07;102140.59;5285196;28;20032;-69
2023/04/05 06:37:16;;;;;;;16.45;10.35;;;;;;;0.48;86.93;102143.84;5285620;28;20024;-70
2023/04/05 06:39:47;;;;;;;17.97;11.33;;;;;;;0.60;86.62;102147.03;5285776;28;20355;-70
2023/04/05 06:42:19;;;;;;;17.17;11.10;;;;;;;0.71;85.79;102147.56;5285283;28;20494;-70
2023/04/05 06:44:50;;;;;;;16.33;10.53;;;;;;;0.80;84.91;102142.88;5285667;28;20040;-70
2023/04/05 06:47:22;;;;;;;15.63;10.13;;;;;;;0.93;83.58;102136.63;5285754;28;20115;-70
2023/04/05 06:49:53;;;;;;;18.50;11.17;;;;;;;1.07;83.63;102143.31;5285249;28;20025;-68
2023/04/05 06:52:25;;;;;;;22.10;10.77;;;;;;;1.22;82.31;102147.44;5284840;28;20036;-70
2023/04/05 06:54:56;;;;;;;17.40;11.33;;;;;;;1.30;81.73;102153.81;5285350;28;20032;-69
2023/04/05 06:57:28;;;;;;;19.83;11.73;;;;;;;1.42;81.25;102156.09;5285155;28;20041;-70
2023/04/05 06:59:59;;;;;;;25.00;11.90;;;;;;;1.55;80.94;102153.28;5285530;28;20441;-69
2023/04/05 07:02:30;;;;;;;22.03;12.03;;;;;;;1.67;79.99;102160.66;5285426;28;20029;-70
2023/04/05 07:05:04;;;;;;;18.67;11.97;;;;;;;1.76;79.29;102160.22;5285335;28;20036;-69
2023/04/05 07:07:40;;;;;;;25.42;11.40;;;;;;;1.91;78.93;102162.59;5285190;28;20024;-70
2023/04/05 07:10:11;;;;;;;18.92;11.65;;;;;;;2.02;78.69;102155.34;5283763;28;20078;-70
2023/04/05 07:12:44;;;;;;;23.97;12.83;;;;;;;2.12;78.23;102150.66;5283792;28;20036;-69
2023/04/05 07:15:16;;;;;;;21.90;11.38;;;;;;;2.24;78.14;102157.16;5285077;28;20115;-69
2023/04/05 07:17:47;;;;;;;31.03;12.47;;;;;;;2.39;78.07;102156.97;5284889;28;20048;-69
2023/04/05 07:20:19;;;;;;;21.20;11.93;;;;;;;2.51;78.16;102150.63;5283347;28;20060;-69
2023/04/05 07:22:50;;;;;;;26.03;11.50;;;;;;;2.62;76.59;102153.63;5284455;28;20033;-70
2023/04/05 07:25:22;;;;;;;26.27;11.33;;;;;;;2.80;75.49;102157.81;5284910;28;20064;-69
2023/04/05 07:27:53;;;;;;;23.17;9.97;;;;;;;2.94;74.10;102159.25;5284423;28;20086;-69
2023/04/05 07:30:28;;;;;;;20.00;9.90;;;;;;;3.05;73.29;102151.97;5284300;28;20352;-70
2023/04/05 07:32:59;;;;;;;16.10;10.85;;;;;;;3.15;71.82;102154.06;5284797;28;20367;-69
2023/04/05 07:35:30;;;;;;;13.83;9.10;;;;;;;3.30;72.14;102153.81;5284496;28;20039;-70
2023/04/05 07:38:02;;;;;;;17.27;10.47;;;;;;;3.45;71.57;102154.41;5284619;28;20060;-69
2023/04/05 07:40:33;;;;;;;16.40;10.00;;;;;;;3.52;70.58;102149.47;5284558;28;20043;-69
2023/04/05 07:43:04;;;;;;;16.03;10.60;;;;;;;3.71;69.32;102140.75;5284455;28;20087;-70
2023/04/05 07:45:36;;;;;;;15.80;9.90;;;;;;;3.88;68.24;102154.25;5283418;28;20068;-69
2023/04/05 07:48:07;;;;;;;16.93;9.57;;;;;;;3.94;67.16;102145.03;5284112;28;20078;-69
2023/04/05 07:50:39;;;;;;;16.90;9.03;;;;;;;4.16;67.02;102156.13;5283970;28;20056;-70
2023/04/05 07:53:11;;;;;;;17.00;9.55;;;;;;;4.31;66.55;102143.75;5283863;28;20020;-69
2023/04/05 07:55:42;;;;;;;13.00;8.80;;;;;;;4.35;64.59;102147.34;5283038;28;20033;-69
2023/04/05 07:58:15;;;;;;;20.27;9.23;;;;;;;4.55;63.59;102145.44;5284314;28;20045;-69
2023/04/05 08:00:46;;;;;;;18.52;9.07;;;;;;;4.86;64.38;102147.34;5283982;28;20036;-69
2023/04/05 08:03:17;;;;;;;16.43;9.70;;;;;;;4.98;64.17;102145.97;5284136;28;20031;-70
2023/04/05 08:05:49;;;;;;;14.50;8.97;;;;;;;5.06;61.50;102144.50;5284291;28;20071;-70
2023/04/05 08:08:25;;;;;;;17.47;8.47;;;;;;;5.27;62.05;102142.59;5283653;28;20025;-70
2023/04/05 08:10:56;;;;;;;13.93;7.93;;;;;;;5.46;59.69;102148.34;5283983;28;20024;-70
2023/04/05 08:13:28;;;;;;;10.77;6.90;;;;;;;5.58;56.31;102137.47;5283537;28;20024;-70
2023/04/05 08:16:00;;;;;;;15.53;7.57;;;;;;;5.82;56.46;102145.94;5283531;28;20056;-70
2023/04/05 08:18:32;;;;;;;10.25;6.75;;;;;;;5.79;55.29;102150.16;5283766;28;20456;-70
2023/04/05 08:21:03;;;;;;;11.70;7.27;;;;;;;6.04;56.72;102144.00;5283466;28;20148;-70
2023/04/05 08:23:35;;;;;;;12.57;8.27;;;;;;;6.28;57.77;102145.47;5283599;28;20036;-70
2023/04/05 08:26:06;;;;;;;13.10;7.83;;;;;;;6.37;56.76;102146.59;5283417;28;20499;-68
2023/04/05 08:28:38;;;;;;;13.53;8.20;;;;;;;6.57;55.31;102151.44;5283442;28;20471;-70
2023/04/05 08:31:09;;;;;;;9.87;6.37;;;;;;;6.74;52.25;102147.53;5283426;28;20155;-69
2023/04/05 08:33:41;;;;;;;9.57;6.37;;;;;;;6.80;51.84;102148.56;5283563;28;20056;-69
2023/04/05 08:36:12;;;;;;;11.73;6.70;;;;;;;7.10;52.51;102143.25;5283275;28;20051;-70
2023/04/05 08:38:44;;;;;;;13.90;7.20;;;;;;;7.09;51.14;102150.13;5283071;28;20040;-70
2023/04/05 08:41:21;;;;;;;10.50;6.70;;;;;;;7.06;49.86;102142.28;5283504;28;20032;-70
2023/04/05 08:44:01;;;;;;;12.93;7.13;;;;;;;7.24;50.18;102144.41;5283275;28;20028;-69
2023/04/05 08:46:34;;;;;;;12.30;7.32;;;;;;;7.42;51.17;102131.00;5283192;28;20387;-69
2023/04/05 08:49:06;;;;;;;12.73;6.82;;;;;;;7.52;48.96;102139.84;5281925;28;20094;-69
2023/04/05 08:51:38;;;;;;;10.25;6.97;;;;;;;7.70;49.14;102134.16;5283190;28;20028;-69
2023/04/05 08:54:10;;;;;;;12.43;7.20;;;;;;;7.65;47.33;102141.00;5282831;28;20042;-69
2023/04/05 08:56:45;;;;;;;15.40;7.83;;;;;;;7.74;48.48;102142.88;5282896;28;20031;-70
2023/04/05 08:59:18;;;;;;;13.77;7.68;;;;;;;7.72;48.08;102136.78;5282870;28;20063;-70
2023/04/05 09:01:51;;;;;;;15.00;7.20;;;;;;;7.74;46.51;102132.50;5283029;28;20041;-70
2023/04/05 09:04:27;;;;;;;9.25;7.03;;;;;;;7.69;44.75;102131.53;5282890;28;20032;-70
2023/04/05 09:07:02;;;;;;;12.88;8.20;;;;;;;7.96;46.36;102132.09;5283012;28;20024;-70
2023/04/05 09:09:36;;;;;;;14.18;9.05;;;;;;;8.31;46.14;102128.44;5283146;28;20025;-70
2023/04/05 09:12:08;;;;;;;13.98;8.52;;;;;;;8.87;44.32;102135.44;5283112;28;20028;-70
2023/04/05 09:14:40;;;;;;;11.73;8.13;;;;;;;9.38;44.49;102131.00;5283019;28;20087;-70
2023/04/05 09:17:11;;;;;;;13.63;7.88;;;;;;;9.88;41.66;102133.38;5283019;28;20113;-71
2023/04/05 09:19:43;;;;;;;14.73;7.70;;;;;;;10.33;40.80;102123.47;5282660;28;20124;-70
2023/04/05 09:22:17;;;;;;;14.67;7.20;;;;;;;11.18;41.08;102122.41;5282582;28;20108;-71
2023/04/05 09:24:48;;;;;;;8.98;7.20;;;;;;;11.14;39.37;102125.88;5281498;28;20071;-71
2023/04/05 09:27:20;;;;;;;11.30;7.50;;;;;;;11.46;39.53;102125.16;5281664;28;20060;-68
2023/04/05 09:29:51;;;;;;;10.67;6.83;;;;;;;11.83;36.18;102114.88;5282751;28;20032;-69
2023/04/05 09:32:27;;;;;;;10.57;6.27;;;;;;;12.03;35.70;102113.22;5282795;28;20040;-69
2023/04/05 09:35:02;;;;;;;15.60;6.50;;;;;;;12.21;35.58;102115.00;5282991;28;20329;-70
2023/04/05 09:37:34;;;;;;;9.48;5.97;;;;;;;12.25;33.28;102108.03;5283106;28;20090;-69
2023/04/05 09:40:07;;;;;;;14.77;7.80;;;;;;;12.76;33.89;102114.16;5282734;28;20472;-69
2023/04/05 09:42:46;;;;;;;8.80;5.70;;;;;;;12.88;33.69;102118.53;5282426;28;20507;-69
2023/04/05 09:45:17;;;;;;;9.27;6.13;;;;;;;13.15;31.21;102114.09;5282790;28;20028;-70
2023/04/05 09:47:56;;;;;;;11.40;6.27;;;;;;;13.03;31.66;102108.91;5282679;28;20031;-70
2023/04/05 09:50:28;;;;;;;9.82;6.25;;;;;;;12.83;32.55;102119.38;5282680;28;20036;-71
2023/04/05 09:53:14;;;;;;;8.07;5.97;;;;;;;13.91;32.94;102105.97;5282128;28;20032;-69
2023/04/05 09:55:46;;;;;;;10.73;6.35;;;;;;;14.46;29.79;102107.38;5282516;28;20392;-71
2023/04/05 09:58:21;;;;;;;13.43;7.30;;;;;;;14.75;30.53;102115.06;5281398;28;20029;-69
2023/04/05 10:00:52;;;;;;;11.57;6.97;;;;;;;14.14;29.39;102101.47;5282509;28;20145;-70
2023/04/05 10:03:25;;;;;;;8.27;6.17;;;;;;;14.31;31.11;102109.25;5282358;28;20535;-70
2023/04/05 10:05:56;;;;;;;10.45;7.70;;;;;;;14.25;29.67;102095.28;5282564;28;20123;-69
2023/04/05 10:08:28;;;;;;;10.03;7.33;;;;;;;14.08;28.69;102096.28;5282313;28;20214;-69
2023/04/05 10:11:03;;;;;;;9.17;6.77;;;;;;;13.85;28.58;102094.66;5286452;28;20039;-69
2023/04/05 10:13:35;;;;;;;8.95;7.30;;;;;;;14.42;31.26;102096.03;5286239;28;20079;-70
2023/04/05 10:16:10;;;;;;;9.05;6.97;;;;;;;15.68;29.32;102086.88;5285978;28;20459;-69
2023/04/05 10:18:48;;;;;;;9.40;7.00;;;;;;;15.79;27.90;102085.88;5284607;28;20051;-70
2023/04/05 10:21:22;;;;;;;8.65;6.50;;;;;;;15.50;26.72;102079.22;5285774;28;20050;-70
2023/04/05 10:24:08;;;;;;;15.57;7.70;;;;;;;14.92;26.86;102091.25;5285239;28;20071;-70
2023/04/05 10:27:05;;;;;;;10.75;7.35;;;;;;;14.64;28.57;102072.28;5284540;28;20115;-70
2023/04/05 10:30:08;;;;;;;11.25;7.68;;;;;;;15.26;28.27;102077.75;5285257;28;20060;-69
2023/04/05 10:32:48;;;;;;;11.70;7.38;;;;;;;15.65;27.05;102073.75;5285764;28;20029;-70
2023/04/05 10:35:27;;;;;;;8.95;7.00;;;;;;;14.54;26.65;102069.69;5285691;28;20064;-70
2023/04/05 10:38:18;;;;;;;9.57;7.15;;;;;;;15.77;27.57;102067.50;5285380;28;20109;-69
2023/04/05 10:40:55;;;;;;;9.13;6.80;;;;;;;16.70;27.47;102077.44;5285662;28;20060;-70
2023/04/05 10:43:29;;;;;;;11.13;7.15;;;;;;;16.02;25.08;102068.00;5285304;28;20071;-70
2023/04/05 10:46:02;;;;;;;10.07;7.50;;;;;;;15.75;25.85;102065.75;5285475;28;20052;-70
2023/04/05 10:48:35;;;;;;;;;;;;;;;17.60;26.68;102070.47;5285821;28;20025;-69
2023/04/05 10:51:07;;;;;;;11.43;7.90;;;;;;;17.34;24.43;102063.97;5285298;28;19955;-69
2023/04/05 10:53:39;;;;;;;9.23;7.07;;;;;;;17.78;25.05;102061.25;5285016;28;20067;-70
2023/04/05 10:56:11;;;;;;;;;;;;;;;19.44;24.55;102066.72;5285824;28;20089;-69
2023/04/05 10:58:44;;;;;;;13.10;7.35;;;;;;;19.00;23.00;102060.91;5285506;28;19913;-70
2023/04/05 11:01:17;;;;;;;11.85;7.53;;;;;;;17.96;23.95;102052.09;5285413;28;20032;-71
2023/04/05 11:03:50;;;;;;;10.98;7.25;;;;;;;17.11;23.93;102052.13;5285161;28;20074;-70
2023/04/05 11:06:26;;;;;;;12.82;7.95;;;;;;;16.74;25.10;102041.38;5285047;28;20044;-71
2023/04/05 11:09:10;;;;;;;8.95;7.05;;;;;;;17.74;26.27;102039.38;5285193;28;20372;-70
2023/04/05 11:11:45;;;;;;;8.60;7.07;;;;;;;17.21;25.07;102038.75;5285155;28;20117;-71
2023/04/05 11:14:27;;;;;;;9.90;7.32;;;;;;;17.12;23.28;102040.66;5285044;28;20452;-71
2023/04/05 11:16:58;;;;;;;9.88;7.20;;;;;;;17.94;24.22;102040.72;5284675;28;20032;-69
2023/04/05 11:19:42;;;;;;;12.47;8.03;;;;;;;19.41;23.85;102040.34;5284632;28;20112;-69
2023/04/05 11:22:24;;;;;;;10.27;7.90;;;;;;;20.15;23.06;102035.44;5284394;28;20127;-69
2023/04/05 11:25:01;;;;;;;;;;;;;;;21.63;22.28;102036.31;5285139;28;20048;-69
2023/04/05 11:27:39;;;;;;;10.63;7.63;;;;;;;20.10;20.90;102034.72;5284655;28;20310;-70
2023/04/05 11:30:11;;;;;;;12.70;7.22;;;;;;;20.11;20.82;102033.78;5284808;28;20381;-70
2023/04/05 11:32:44;;;;;;;10.35;7.85;;;;;;;19.39;21.24;102028.97;5284645;28;20082;-70
2023/04/05 11:35:21;;;;;;;14.15;10.25;;;;;;;19.26;22.50;102020.53;5283230;28;20475;-70
2023/04/05 11:37:59;;;;;;;13.30;9.38;;;;;;;20.89;22.42;102023.16;5283307;28;20036;-70
2023/04/05 11:40:36;;;;;;;9.60;7.07;;;;;;;22.03;19.29;102024.09;5284557;28;20039;-70
2023/04/05 11:43:11;;;;;;;11.48;8.05;;;;;;;22.95;17.90;102015.75;5282967;28;20426;-69
2023/04/05 11:45:42;;;;;;;9.25;8.10;;;;;;;23.64;17.66;102020.53;5284357;28;20379;-70
2023/04/05 11:48:14;;;;;;;12.70;7.68;;;;;;;23.44;17.72;102007.28;5283081;28;20032;-71
2023/04/05 11:50:46;;;;;;;9.13;6.75;;;;;;;23.73;16.66;102015.69;5284310;28;20132;-70